Главная страница
METAR-TAF:

METAR-TAF

Аэропорты :

Ульяновск-Восточный

Ульяновск, Россия

широта: 54-21N, долгота: 048-23E, высота над уровнем моря: 77 м

Текущие метеонаблюдения

Эта сводка был подготовлена 38 минут назад, в 03:00 UTC
Ветер 2 Узел от южный
Температура 14°C
Влажность 82%
Давление 1017 hPa
Видимость: 8000 м

METAR: UWLW 150300Z 19001MPS 8000 NSC 14/11 Q1017 R20/CLRD60 NOSIG RMK QFE757

Время: 06:38 (03:38 UTC)

Прогноз

Эта сводка был подготовлена 1 час и 53 минут назад, в 01:45 UTC
Прогноз действительный с 15-го 03 UTC до 16-го 03 UTC
Ветер 6 Узел от северо-западный
Видимость: 8000 м
Отдельные облака на высоте 3000 фута
временами
С 15-го 03 UTC до 15-го 15 UTC
Ветер 16 Узел от западный
Рассеянная облачность на высоте 2000 фута
изменения
С 15-го 16 UTC до 15-го 18 UTC
Ветер 6 Узел от южный

TAF: UWLW 150145Z 1503/1603 31003MPS 8000 SCT030 TEMPO 1503/1515 28008MPS BKN020 BECMG 1516/1518 18003MPS

Метеонаблюдения и прогнозы для более 4000 аэропортов (сводки METAR и TAF).

Имеющиеся станции представлены на карте желтыми и красными точками.

Чтобы увидеть название станции, наведите на нее мышь.

Затем щелкните, чтобы увидеть метеонаблюдения и метеопрогнозы.

Управление картой: чтобы увеличить масштаб, щелкните зеленые кнопки с черным крестиком; чтобы уменьшить масштаб, щелкните зеленую кнопку с тире; для просмотра соседних карт щелкайте зеленые стрелки.


METAR-TAF: